Time;durP1;ratioP1;P1;durP2;ratioP2;P2;SDS_P1;SDS_P2;PMS_P1;PMS_P2;Temp;Humidity;BMP_temperature;BMP_pressure;BME280_temperature;BME280_humidity;BME280_pressure;Samples;Min_cycle;Max_cycle;Signal;HPM_P1;HPM_P2
2022/06/12 00:00:30;;;;;;;;;;;13.80;99.90;;;;;;4952388;29;20373;-61
2022/06/12 00:02:56;;;;;;;;;;;13.70;99.90;;;;;;4952347;29;20287;-62
2022/06/12 00:05:22;;;;;;;;;;;13.60;99.90;;;;;;4956736;28;19910;-61
2022/06/12 00:07:48;;;;;;;;;;;13.60;99.90;;;;;;4971858;28;19906;-62
2022/06/12 00:10:14;;;;;;;;;;;13.50;99.90;;;;;;4971701;28;19917;-62
2022/06/12 00:12:40;;;;;;;;;;;13.50;99.90;;;;;;4971363;28;19914;-62
2022/06/12 00:15:06;;;;;;;;;;;13.50;99.90;;;;;;4971517;28;20232;-62
2022/06/12 00:17:32;;;;;;;;;;;13.50;99.90;;;;;;4971625;28;20358;-62
2022/06/12 00:19:57;;;;;;;;;;;13.40;99.90;;;;;;4971368;28;19913;-62
2022/06/12 00:22:23;;;;;;;;;;;13.40;99.90;;;;;;4971567;28;20295;-62
2022/06/12 00:24:49;;;;;;;;;;;13.40;99.90;;;;;;4970862;28;19910;-62
2022/06/12 00:27:14;;;;;;;;;;;13.40;99.90;;;;;;4971445;28;19910;-62
2022/06/12 00:29:41;;;;;;;;;;;13.40;99.90;;;;;;4971562;28;19937;-62
2022/06/12 00:32:12;;;;;;;;;;;13.40;99.90;;;;;;4971542;28;19910;-62
2022/06/12 00:34:43;;;;;;;;;;;13.40;99.90;;;;;;4970950;28;19906;-62
2022/06/12 00:37:10;;;;;;;;;;;13.40;99.90;;;;;;4970675;28;19929;-62
2022/06/12 00:39:36;;;;;;;;;;;13.30;99.90;;;;;;4971188;28;19996;-62
2022/06/12 00:42:03;;;;;;;;;;;13.30;99.90;;;;;;4971027;28;20001;-62
2022/06/12 00:44:34;;;;;;;;;;;13.30;99.90;;;;;;4971175;28;19917;-62
2022/06/12 00:47:04;;;;;;;;;;;13.30;99.90;;;;;;4971048;28;19918;-62
2022/06/12 00:49:39;;;;;;;;;;;13.20;99.90;;;;;;4963400;28;20387;-63
2022/06/12 00:52:09;;;;;;;;;;;13.30;99.90;;;;;;4951247;29;20004;-62
2022/06/12 00:54:35;;;;;;;;;;;13.20;99.90;;;;;;4951462;29;20707;-62
2022/06/12 00:57:02;;;;;;;;;;;13.10;99.90;;;;;;4951615;29;20558;-62
2022/06/12 00:59:30;;;;;;;;;;;13.00;99.90;;;;;;4951312;29;20008;-62
2022/06/12 01:01:56;;;;;;;;;;;12.80;99.90;;;;;;4951452;29;19953;-61
2022/06/12 01:07:09;;;;;;;;;;;12.50;99.90;;;;;;4969041;28;19945;-62
2022/06/12 01:09:38;;;;;;;;;;;12.40;99.90;;;;;;4970585;28;19912;-62
2022/06/12 01:12:06;;;;;;;;;;;12.30;99.90;;;;;;4970605;28;19932;-62
2022/06/12 01:14:34;;;;;;;;;;;12.30;99.90;;;;;;4970417;28;19914;-62
2022/06/12 01:17:00;;;;;;;;;;;12.30;99.90;;;;;;4970484;28;19910;-62
2022/06/12 01:19:34;;;;;;;;;;;12.40;99.90;;;;;;4970621;28;19921;-62
2022/06/12 01:22:18;;;;;;;;;;;12.40;99.90;;;;;;4970380;28;19997;-62
2022/06/12 01:25:02;;;;;;;;;;;12.40;99.90;;;;;;4970331;28;19913;-63
2022/06/12 01:27:37;;;;;;;;;;;12.40;99.90;;;;;;4970261;28;19914;-62
2022/06/12 01:30:02;;;;;;;;;;;12.40;99.90;;;;;;4970158;28;19970;-62
2022/06/12 01:32:28;;;;;;;;;;;12.40;99.90;;;;;;4970187;28;19918;-63
2022/06/12 01:34:59;;;;;;;;;;;12.40;99.90;;;;;;4970341;28;19910;-62
2022/06/12 01:37:38;;;;;;;;;;;12.40;99.90;;;;;;4961151;28;20008;-60
2022/06/12 01:40:22;;;;;;;;;;;12.40;99.90;;;;;;4950924;29;20049;-60
2022/06/12 01:42:53;;;;;;;;;;;12.40;99.90;;;;;;4951359;29;19918;-61
2022/06/12 01:45:27;;;;;;;;;;;12.40;99.90;;;;;;4950722;29;19918;-60
2022/06/12 01:47:55;;;;;;;;;;;12.40;99.90;;;;;;4950838;29;19907;-60
2022/06/12 01:50:28;;;;;;;;;;;12.30;99.90;;;;;;4950500;29;19918;-62
2022/06/12 01:52:59;;;;;;;;;;;12.40;99.90;;;;;;4950722;29;19913;-60
2022/06/12 01:55:31;;;;;;;;;;;12.40;99.90;;;;;;4950559;29;19917;-60
2022/06/12 01:58:09;;;;;;;;;;;12.30;99.90;;;;;;4950471;29;19914;-61
2022/06/12 02:00:35;;;;;;;;;;;12.30;99.90;;;;;;4950561;29;19914;-60
2022/06/12 02:03:24;;;;;;;;;;;12.30;99.90;;;;;;4950418;29;19913;-61
2022/06/12 02:06:16;;;;;;;;;;;12.20;99.90;;;;;;4958224;28;20017;-61
2022/06/12 02:09:14;;;;;;;;;;;12.30;99.90;;;;;;4961133;28;19920;-61
2022/06/12 02:14:30;;;;;;;;;;;12.20;99.90;;;;;;4969684;28;19921;-61
2022/06/12 02:16:58;;;;;;;;;;;12.20;99.90;;;;;;4969407;28;19968;-60
2022/06/12 02:19:26;;;;;;;;;;;12.30;99.90;;;;;;4968174;28;19906;-60
2022/06/12 02:21:54;;;;;;;;;;;12.30;99.90;;;;;;4969205;28;19941;-60
2022/06/12 02:24:26;;;;;;;;;;;12.30;99.90;;;;;;4969140;28;19952;-60
2022/06/12 02:27:00;;;;;;;;;;;12.20;99.90;;;;;;4968894;28;19925;-61
2022/06/12 02:29:33;;;;;;;;;;;12.20;99.90;;;;;;4969247;28;19918;-61
2022/06/12 02:32:00;;;;;;;;;;;12.10;99.90;;;;;;4969024;28;20001;-61
2022/06/12 02:34:28;;;;;;;;;;;12.10;99.90;;;;;;4968919;28;20000;-61
2022/06/12 02:37:03;;;;;;;;;;;12.10;99.90;;;;;;4968416;28;19913;-61
2022/06/12 02:39:36;;;;;;;;;;;12.10;99.90;;;;;;4968774;28;20403;-62
2022/06/12 02:42:03;;;;;;;;;;;12.10;99.90;;;;;;4969452;28;19913;-61
2022/06/12 02:44:35;;;;;;;;;;;12.00;99.90;;;;;;4967539;28;19914;-62
2022/06/12 02:47:06;;;;;;;;;;;12.00;99.90;;;;;;4965573;28;19918;-60
2022/06/12 02:49:31;;;;;;;;;;;11.90;99.90;;;;;;4968886;28;20004;-63
2022/06/12 02:52:17;;;;;;;;;;;11.90;99.90;;;;;;4968507;28;20004;-63
2022/06/12 02:54:52;;;;;;;;;;;11.90;99.90;;;;;;4961305;28;19906;-63
2022/06/12 02:57:20;;;;;;;;;;;11.90;99.90;;;;;;4968916;28;20006;-62
2022/06/12 03:00:03;;;;;;;;;;;11.80;99.90;;;;;;4968609;28;19917;-63
2022/06/12 03:02:33;;;;;;;;;;;11.80;99.90;;;;;;4968768;28;20292;-63
2022/06/12 03:05:21;;;;;;;;;;;11.80;99.90;;;;;;4968584;28;19910;-62
2022/06/12 03:07:50;;;;;;;;;;;11.80;99.90;;;;;;4969170;28;20004;-62
2022/06/12 03:10:26;;;;;;;;;;;11.80;99.90;;;;;;4971549;28;20362;-63
2022/06/12 03:12:51;;;;;;;;;;;11.80;99.90;;;;;;4971660;28;20387;-63
2022/06/12 03:15:34;;;;;;;;;;;11.80;99.90;;;;;;4971695;28;19940;-63
2022/06/12 03:18:00;;;;;;;;;;;11.80;99.90;;;;;;4971621;28;20390;-63
2022/06/12 03:20:30;;;;;;;;;;;11.80;99.90;;;;;;4970342;28;19910;-63
2022/06/12 03:23:02;;;;;;;;;;;11.80;99.90;;;;;;4968818;28;19937;-63
2022/06/12 03:25:35;;;;;;;;;;;11.80;99.90;;;;;;4968733;28;19910;-63
2022/06/12 03:28:04;;;;;;;;;;;11.80;99.90;;;;;;4968308;28;19954;-63
2022/06/12 03:30:33;;;;;;;;;;;11.70;99.90;;;;;;4970708;28;19914;-63
2022/06/12 03:33:05;;;;;;;;;;;11.70;99.90;;;;;;4973436;28;20358;-62
2022/06/12 03:35:35;;;;;;;;;;;11.70;99.90;;;;;;4975051;28;19906;-63
2022/06/12 03:38:04;;;;;;;;;;;11.70;99.90;;;;;;4975247;28;19941;-63
2022/06/12 03:40:35;;;;;;;;;;;11.70;99.90;;;;;;4975469;28;19914;-63
2022/06/12 03:43:07;;;;;;;;;;;11.60;99.90;;;;;;4975583;28;19913;-63
2022/06/12 03:45:38;;;;;;;;;;;11.60;99.90;;;;;;4970458;28;20457;-63
2022/06/12 03:48:16;;;;;;;;;;;11.60;99.90;;;;;;4955931;29;19993;-63
2022/06/12 03:50:49;;;;;;;;;;;11.60;99.90;;;;;;4955447;29;20315;-63
2022/06/12 03:53:25;;;;;;;;;;;11.60;99.90;;;;;;4955679;29;19906;-63
2022/06/12 03:58:43;;;;;;;;;;;11.70;99.90;;;;;;4955818;29;19933;-62
2022/06/12 04:01:09;;;;;;;;;;;11.70;99.90;;;;;;4955743;29;19906;-63
2022/06/12 04:03:38;;;;;;;;;;;11.70;99.90;;;;;;4955573;29;19917;-63
2022/06/12 04:06:06;;;;;;;;;;;11.70;99.90;;;;;;4965506;28;19922;-63
2022/06/12 04:08:37;;;;;;;;;;;11.70;99.90;;;;;;4975028;28;19952;-62
2022/06/12 04:11:03;;;;;;;;;;;11.80;99.90;;;;;;4974788;28;19910;-63
2022/06/12 04:13:29;;;;;;;;;;;11.80;99.90;;;;;;4974660;28;19906;-63
2022/06/12 04:15:56;;;;;;;;;;;11.80;99.90;;;;;;4967594;28;20049;-63
2022/06/12 04:18:23;;;;;;;;;;;11.80;99.90;;;;;;4954770;29;19977;-61
2022/06/12 04:20:54;;;;;;;;;;;11.90;99.90;;;;;;4951077;29;19917;-63
2022/06/12 04:23:22;;;;;;;;;;;12.10;99.90;;;;;;4952166;29;19906;-61
2022/06/12 04:25:51;;;;;;;;;;;12.10;99.90;;;;;;4952148;28;19914;-61
2022/06/12 04:28:25;;;;;;;;;;;12.10;99.90;;;;;;4952124;29;19915;-61
2022/06/12 04:30:51;;;;;;;;;;;12.10;99.90;;;;;;4952016;29;20387;-61
2022/06/12 04:33:22;;;;;;;;;;;12.10;99.90;;;;;;4952068;29;20001;-61
2022/06/12 04:35:51;;;;;;;;;;;12.10;99.90;;;;;;4959769;28;19906;-61
2022/06/12 04:38:16;;;;;;;;;;;12.20;99.90;;;;;;4972221;28;19921;-63
2022/06/12 04:40:42;;;;;;;;;;;12.20;99.90;;;;;;4974169;28;19906;-62
2022/06/12 04:43:07;;;;;;;;;;;12.30;99.90;;;;;;4973525;28;19913;-62
2022/06/12 04:45:33;;;;;;;;;;;12.30;99.90;;;;;;4966415;28;19937;-62
2022/06/12 04:47:59;;;;;;;;;;;12.30;99.90;;;;;;4954832;29;19910;-63
2022/06/12 04:50:24;;;;;;;;;;;12.40;99.90;;;;;;4954631;29;20063;-62
2022/06/12 04:52:50;;;;;;;;;;;12.60;99.90;;;;;;4954657;29;20274;-62
2022/06/12 04:55:15;;;;;;;;;;;12.70;99.90;;;;;;4954968;29;19911;-62
2022/06/12 04:57:41;;;;;;;;;;;12.80;99.90;;;;;;4954745;29;19929;-62
2022/06/12 05:00:07;;;;;;;;;;;12.90;99.90;;;;;;4954536;29;19996;-63
2022/06/12 05:02:32;;;;;;;;;;;13.00;99.90;;;;;;4951352;29;20371;-63
2022/06/12 05:04:58;;;;;;;;;;;13.10;99.90;;;;;;4952735;28;19911;-62
2022/06/12 05:07:23;;;;;;;;;;;13.20;99.90;;;;;;4971954;28;19924;-63
2022/06/12 05:09:49;;;;;;;;;;;13.20;99.90;;;;;;4973727;28;19906;-63
2022/06/12 05:12:15;;;;;;;;;;;13.30;99.90;;;;;;4973472;28;20419;-62
2022/06/12 05:14:41;;;;;;;;;;;13.40;99.90;;;;;;4973720;28;20371;-62
2022/06/12 05:17:10;;;;;;;;;;;13.50;99.90;;;;;;4971072;28;19921;-62
2022/06/12 05:19:37;;;;;;;;;;;13.50;99.90;;;;;;5001655;28;20450;-62
2022/06/12 05:22:03;;;;;;;;;;;13.60;99.90;;;;;;4971566;28;19996;-63
2022/06/12 05:24:29;;;;;;;;;;;13.70;99.90;;;;;;4973303;28;19910;-63
2022/06/12 05:26:55;;;;;;;;;;;13.80;99.90;;;;;;4973379;28;19922;-62
2022/06/12 05:29:22;;;;;;;;;;;13.90;99.90;;;;;;4973482;28;19910;-62
2022/06/12 05:31:48;;;;;;;;;;;14.00;99.90;;;;;;4971086;28;19916;-63
2022/06/12 05:34:15;;;;;;;;;;;14.00;99.90;;;;;;4970250;28;19993;-63
2022/06/12 05:36:40;;;;;;;;;;;14.10;99.90;;;;;;4969757;28;19918;-63
2022/06/12 05:39:06;;;;;;;;;;;14.30;99.90;;;;;;4970318;28;19918;-61
2022/06/12 05:41:32;;;;;;;;;;;14.30;99.90;;;;;;4971369;28;19906;-61
2022/06/12 05:43:58;;;;;;;;;;;14.40;99.90;;;;;;4973345;28;19913;-61
2022/06/12 05:46:23;;;;;;;;;;;14.60;99.90;;;;;;4972963;28;19917;-61
2022/06/12 05:48:49;;;;;;;;;;;14.70;99.90;;;;;;4963644;28;19914;-60
2022/06/12 05:51:16;;;;;;;;;;;14.80;99.90;;;;;;4952630;28;20249;-61
2022/06/12 05:53:41;;;;;;;;;;;14.90;99.90;;;;;;4950666;28;19906;-61
2022/06/12 05:56:08;;;;;;;;;;;14.90;99.90;;;;;;4950563;29;20295;-61
2022/06/12 05:58:36;;;;;;;;;;;15.00;99.90;;;;;;4950491;29;19906;-61
2022/06/12 06:01:02;;;;;;;;;;;15.00;99.90;;;;;;4950576;29;19911;-61
2022/06/12 06:03:28;;;;;;;;;;;15.10;99.90;;;;;;4950604;29;20398;-61
2022/06/12 06:05:53;;;;;;;;;;;15.10;99.90;;;;;;4959223;28;19914;-61
2022/06/12 06:08:19;;;;;;;;;;;15.20;99.90;;;;;;4969899;28;19907;-62
2022/06/12 06:10:45;;;;;;;;;;;15.30;99.90;;;;;;4970519;28;19906;-62
2022/06/12 06:13:11;;;;;;;;;;;15.40;99.90;;;;;;4972931;28;19996;-62
2022/06/12 06:15:37;;;;;;;;;;;15.50;99.90;;;;;;4972765;28;20013;-62
2022/06/12 06:18:03;;;;;;;;;;;15.60;99.90;;;;;;4969552;28;19906;-62
2022/06/12 06:20:30;;;;;;;;;;;15.60;99.90;;;;;;4969259;28;19957;-62
2022/06/12 06:22:55;;;;;;;;;;;15.80;99.90;;;;;;4971038;28;20327;-62
2022/06/12 06:25:22;;;;;;;;;;;15.90;99.90;;;;;;4969181;28;20363;-62
2022/06/12 06:27:48;;;;;;;;;;;16.00;99.90;;;;;;4984246;28;20260;-62
2022/06/12 06:30:14;;;;;;;;;;;16.00;99.90;;;;;;4969047;28;20342;-61
2022/06/12 06:32:40;;;;;;;;;;;16.00;99.90;;;;;;4969167;28;19906;-62
2022/06/12 06:35:06;;;;;;;;;;;16.20;99.90;;;;;;4969360;28;20375;-62
2022/06/12 06:37:32;;;;;;;;;;;16.30;99.90;;;;;;4968733;28;19917;-62
2022/06/12 06:39:58;;;;;;;;;;;16.40;99.90;;;;;;4955332;28;19916;-62
2022/06/12 06:42:23;;;;;;;;;;;16.50;99.90;;;;;;4949652;29;20419;-62
2022/06/12 06:47:35;;;;;;;;;;;16.70;99.90;;;;;;4949669;29;20347;-62
2022/06/12 06:50:01;;;;;;;;;;;16.80;99.90;;;;;;4954521;28;20282;-62
2022/06/12 06:52:27;;;;;;;;;;;17.00;99.90;;;;;;4964221;28;19917;-63
2022/06/12 06:54:52;;;;;;;;;;;17.10;99.90;;;;;;4987105;28;19918;-63
2022/06/12 06:57:18;;;;;;;;;;;17.40;99.90;;;;;;4969914;28;19910;-63
2022/06/12 06:59:43;;;;;;;;;;;17.50;99.90;;;;;;4962059;28;19917;-63
2022/06/12 07:02:10;;;;;;;;;;;17.70;99.90;;;;;;4955426;28;19906;-63
2022/06/12 07:04:36;;;;;;;;;;;17.70;99.90;;;;;;4948904;29;19906;-63
2022/06/12 07:07:01;;;;;;;;;;;17.80;99.90;;;;;;4967499;28;19922;-63
2022/06/12 07:09:27;;;;;;;;;;;17.90;99.90;;;;;;4971716;28;19917;-61
2022/06/12 07:11:52;;;;;;;;;;;18.00;99.90;;;;;;4971617;28;19910;-61
2022/06/12 07:14:18;;;;;;;;;;;18.20;99.90;;;;;;4970433;28;20017;-61
2022/06/12 07:16:43;;;;;;;;;;;18.30;99.90;;;;;;4971721;28;20255;-61
2022/06/12 07:19:09;;;;;;;;;;;18.40;99.90;;;;;;4971833;28;20256;-61
2022/06/12 07:21:35;;;;;;;;;;;18.50;99.90;;;;;;4971447;28;19914;-61
2022/06/12 07:24:01;;;;;;;;;;;18.40;99.90;;;;;;4971514;28;19913;-62
2022/06/12 07:26:28;;;;;;;;;;;18.60;99.90;;;;;;4971583;28;19938;-62
2022/06/12 07:28:54;;;;;;;;;;;18.80;99.90;;;;;;4971426;28;20004;-61
2022/06/12 07:31:20;;;;;;;;;;;18.90;99.90;;;;;;4971563;28;19997;-62
2022/06/12 07:33:46;;;;;;;;;;;19.10;99.90;;;;;;4971800;28;19913;-62
2022/06/12 07:36:12;;;;;;;;;;;19.20;99.90;;;;;;4971006;28;19906;-63
2022/06/12 07:38:39;;;;;;;;;;;19.40;99.90;;;;;;4971698;28;20016;-63
2022/06/12 07:41:06;;;;;;;;;;;19.70;99.90;;;;;;4971570;28;19906;-63
2022/06/12 07:43:34;;;;;;;;;;;19.80;99.90;;;;;;4971512;28;19906;-63
2022/06/12 07:46:00;;;;;;;;;;;19.90;99.90;;;;;;4971503;28;19918;-63
2022/06/12 07:48:26;;;;;;;;;;;19.80;99.90;;;;;;4971645;28;19914;-62
2022/06/12 07:50:53;;;;;;;;;;;20.00;99.90;;;;;;4971142;28;19906;-63
2022/06/12 07:53:19;;;;;;;;;;;20.40;99.90;;;;;;4968099;28;20383;-63
2022/06/12 07:55:46;;;;;;;;;;;21.00;99.90;;;;;;4948886;28;20376;-63
2022/06/12 07:58:11;;;;;;;;;;;21.80;98.70;;;;;;4948865;29;19910;-63
2022/06/12 08:00:38;;;;;;;;;;;22.50;96.10;;;;;;4949182;29;20285;-63
2022/06/12 08:03:05;;;;;;;;;;;23.30;95.10;;;;;;4949136;29;19930;-64
2022/06/12 08:05:31;;;;;;;;;;;23.90;91.90;;;;;;4954335;28;20448;-64
2022/06/12 08:07:57;;;;;;;;;;;24.40;90.70;;;;;;4968049;28;20004;-64
2022/06/12 08:10:23;;;;;;;;;;;24.70;88.00;;;;;;4968005;28;20056;-64
2022/06/12 08:12:49;;;;;;;;;;;25.00;83.70;;;;;;4968330;28;20363;-67
2022/06/12 08:15:16;;;;;;;;;;;25.30;82.70;;;;;;4968345;28;19964;-66
2022/06/12 08:17:42;;;;;;;;;;;25.40;77.10;;;;;;4970145;28;19976;-66
2022/06/12 08:20:28;;;;;;;;;;;25.60;73.80;;;;;;4971558;28;20374;-66
2022/06/12 08:22:54;;;;;;;;;;;25.70;71.10;;;;;;4971611;28;20377;-67
2022/06/12 08:25:20;;;;;;;;;;;26.00;65.30;;;;;;4971372;28;20430;-66
2022/06/12 08:27:45;;;;;;;;;;;26.20;64.30;;;;;;4971665;28;20056;-66
2022/06/12 08:30:11;;;;;;;;;;;26.30;63.40;;;;;;4969045;28;20036;-66
2022/06/12 08:32:37;;;;;;;;;;;26.30;61.40;;;;;;4969269;28;19918;-66
2022/06/12 08:35:08;;;;;;;;;;;26.50;58.80;;;;;;4969244;28;20096;-66
2022/06/12 08:37:35;;;;;;;;;;;26.80;54.70;;;;;;4951370;28;20221;-67
2022/06/12 08:40:01;;;;;;;;;;;26.70;52.70;;;;;;4949666;29;19964;-67
2022/06/12 08:42:36;;;;;;;;;;;26.90;52.70;;;;;;4949736;29;19915;-66
2022/06/12 08:45:01;;;;;;;;;;;27.00;53.60;;;;;;4951129;29;19937;-66
2022/06/12 08:47:46;;;;;;;;;;;27.30;51.70;;;;;;4951500;29;20306;-65
2022/06/12 08:50:24;;;;;;;;;;;26.50;49.20;;;;;;4951525;28;19906;-66
2022/06/12 08:52:59;;;;;;;;;;;27.20;51.20;;;;;;4951211;29;20327;-67
2022/06/12 08:55:48;;;;;;;;;;;27.60;48.20;;;;;;4951634;29;20287;-67
2022/06/12 08:58:31;;;;;;;;;;;28.00;49.10;;;;;;4953231;28;19980;-66
2022/06/12 09:00:58;;;;;;;;;;;28.30;46.70;;;;;;4951363;29;19910;-67
2022/06/12 09:03:25;;;;;;;;;;;28.00;52.20;;;;;;4951173;29;20343;-67
2022/06/12 09:05:53;;;;;;;;;;;28.30;47.80;;;;;;4958821;28;19918;-67
2022/06/12 09:08:21;;;;;;;;;;;28.50;44.50;;;;;;4970556;28;19907;-67
2022/06/12 09:10:53;;;;;;;;;;;28.80;43.00;;;;;;4970305;28;19910;-67
2022/06/12 09:13:37;;;;;;;;;;;28.90;43.60;;;;;;4970385;28;20385;-66
2022/06/12 09:16:21;;;;;;;;;;;29.30;41.60;;;;;;4970792;28;19910;-65
2022/06/12 09:18:50;;;;;;;;;;;29.30;40.40;;;;;;4970117;28;20012;-65
2022/06/12 09:21:20;;;;;;;;;;;30.10;42.30;;;;;;4969704;28;19913;-65
2022/06/12 09:24:01;;;;;;;;;;;30.10;38.70;;;;;;4970306;28;19913;-67
2022/06/12 09:26:33;;;;;;;;;;;29.90;38.60;;;;;;4970163;28;19971;-67
2022/06/12 09:29:16;;;;;;;;;;;30.70;37.70;;;;;;4969376;28;20290;-67
2022/06/12 09:31:57;;;;;;;;;;;31.00;37.30;;;;;;4970320;28;19918;-67
2022/06/12 09:34:42;;;;;;;;;;;31.00;35.70;;;;;;4969955;28;19928;-67
2022/06/12 09:40:20;;;;;;;;;;;32.20;34.70;;;;;;4970105;28;19940;-66
2022/06/12 09:42:45;;;;;;;;;;;32.80;34.90;;;;;;4969781;28;20374;-65
2022/06/12 09:45:18;;;;;;;;;;;32.00;33.10;;;;;;4969602;28;19910;-65
2022/06/12 09:47:50;;;;;;;;;;;32.80;33.30;;;;;;4969838;28;19910;-65
2022/06/12 09:50:34;;;;;;;;;;;33.30;32.10;;;;;;4969519;28;19906;-65
2022/06/12 09:53:08;;;;;;;;;;;33.40;29.10;;;;;;4969382;28;19906;-66
2022/06/12 09:55:53;;;;;;;;;;;32.90;29.20;;;;;;4969311;28;19910;-66
2022/06/12 09:58:29;;;;;;;;;;;31.40;29.30;;;;;;4969495;28;19913;-66
2022/06/12 10:01:06;;;;;;;;;;;31.30;30.30;;;;;;4969289;28;19910;-66
2022/06/12 10:03:35;;;;;;;;;;;28.10;34.30;;;;;;4961486;28;19942;-66
2022/06/12 10:06:03;;;;;;;;;;;26.30;40.90;;;;;;4959328;28;19914;-65
2022/06/12 10:08:49;;;;;;;;;;;27.80;44.90;;;;;;4969320;28;19905;-66
2022/06/12 10:11:18;;;;;;;;;;;28.60;41.60;;;;;;4968805;28;19906;-66
2022/06/12 10:13:49;;;;;;;;;;;27.70;42.00;;;;;;4969064;28;19998;-66
2022/06/12 10:16:18;;;;;;;;;;;28.40;43.60;;;;;;4969111;28;19910;-66
2022/06/12 10:18:56;;;;;;;;;;;28.60;43.50;;;;;;4969070;28;19941;-66
2022/06/12 10:21:23;;;;;;;;;;;27.60;46.70;;;;;;4968735;28;20271;-66
2022/06/12 10:23:49;;;;;;;;;;;27.50;50.80;;;;;;4968656;28;19906;-66
2022/06/12 10:26:20;;;;;;;;;;;26.10;52.30;;;;;;4968908;28;19920;-65
2022/06/12 10:28:46;;;;;;;;;;;25.20;55.90;;;;;;4969388;28;19966;-65
2022/06/12 10:31:11;;;;;;;;;;;24.70;60.70;;;;;;4968883;28;19949;-65
2022/06/12 10:33:51;;;;;;;;;;;24.60;63.80;;;;;;4968943;28;19918;-65
2022/06/12 10:36:26;;;;;;;;;;;24.40;67.70;;;;;;4968707;28;19926;-65
2022/06/12 10:39:04;;;;;;;;;;;24.10;64.90;;;;;;4949465;28;20012;-65
2022/06/12 10:41:40;;;;;;;;;;;26.60;62.90;;;;;;4938474;28;19911;-66
2022/06/12 10:44:14;;;;;;;;;;;29.30;52.50;;;;;;4930407;29;19907;-64
2022/06/12 10:46:39;;;;;;;;;;;30.40;47.10;;;;;;4930737;29;20439;-64
2022/06/12 10:49:25;;;;;;;;;;;30.20;43.70;;;;;;4930373;29;19913;-64
2022/06/12 10:52:02;;;;;;;;;;;32.10;41.10;;;;;;4929779;29;19958;-64
2022/06/12 10:54:28;;;;;;;;;;;31.60;37.70;;;;;;4930557;29;19910;-64
2022/06/12 10:57:07;;;;;;;;;;;30.30;39.80;;;;;;4930648;29;19910;-65
2022/06/12 10:59:36;;;;;;;;;;;31.50;41.10;;;;;;4930302;28;19907;-64
2022/06/12 11:02:13;;;;;;;;;;;31.80;40.00;;;;;;4930423;29;20045;-64
2022/06/12 11:04:54;;;;;;;;;;;33.50;37.40;;;;;;4930807;29;19915;-65
2022/06/12 11:07:22;;;;;;;;;;;34.20;35.30;;;;;;4929958;29;19915;-64
2022/06/12 11:09:50;;;;;;;;;;;33.60;33.70;;;;;;4930231;29;20402;-64
2022/06/12 11:12:22;;;;;;;;;;;35.30;31.80;;;;;;4930216;29;19910;-63
2022/06/12 11:15:07;;;;;;;;;;;35.40;29.90;;;;;;4930134;29;20358;-63
2022/06/12 11:17:36;;;;;;;;;;;35.50;30.00;;;;;;4929399;29;20560;-64
2022/06/12 11:20:04;;;;;;;;;;;33.00;28.10;;;;;;4930301;29;20379;-64
2022/06/12 11:22:52;;;;;;;;;;;32.90;31.00;;;;;;4930037;29;19907;-64
2022/06/12 11:25:24;;;;;;;;;;;33.90;33.50;;;;;;4929780;29;19968;-64
2022/06/12 11:27:52;;;;;;;;;;;35.80;28.10;;;;;;4929801;29;20280;-64
2022/06/12 11:30:30;;;;;;;;;;;35.70;27.50;;;;;;4929970;29;19961;-64
2022/06/12 11:33:15;;;;;;;;;;;36.40;27.40;;;;;;4930231;29;20350;-61
2022/06/12 11:35:40;;;;;;;;;;;36.70;25.40;;;;;;4936619;29;19906;-63
2022/06/12 11:38:20;;;;;;;;;;;33.10;25.60;;;;;;4962333;28;20290;-64
2022/06/12 11:41:04;;;;;;;;;;;30.20;29.50;;;;;;4968646;28;19906;-63
2022/06/12 11:43:35;;;;;;;;;;;28.70;33.10;;;;;;4968550;28;19910;-62
2022/06/12 11:46:19;;;;;;;;;;;27.30;37.00;;;;;;4967975;28;20298;-63
2022/06/12 11:48:44;;;;;;;;;;;26.60;41.30;;;;;;4968407;28;19906;-62
2022/06/12 11:51:36;;;;;;;;;;;26.40;42.70;;;;;;4969605;28;20048;-64
2022/06/12 11:54:15;;;;;;;;;;;27.40;44.20;;;;;;4963459;28;20379;-64
2022/06/12 11:56:55;;;;;;;;;;;27.40;41.00;;;;;;4972267;28;19910;-63
2022/06/12 11:59:46;;;;;;;;;;;28.50;41.40;;;;;;4972226;28;19906;-64
2022/06/12 12:02:28;;;;;;;;;;;30.00;42.60;;;;;;4963531;28;20014;-63
2022/06/12 12:05:12;;;;;;;;;;;32.80;36.60;;;;;;4965221;28;20364;-62
2022/06/12 12:07:37;;;;;;;;;;;33.00;30.80;;;;;;4972125;28;19924;-64
2022/06/12 12:10:15;;;;;;;;;;;33.20;30.70;;;;;;4974131;28;19906;-64
2022/06/12 12:12:43;;;;;;;;;;;34.00;31.50;;;;;;4971907;28;20315;-64
2022/06/12 12:15:32;;;;;;;;;;;34.40;30.80;;;;;;4971935;28;19910;-63
2022/06/12 12:17:59;;;;;;;;;;;34.30;29.40;;;;;;4969129;28;20379;-64
2022/06/12 12:20:26;;;;;;;;;;;32.80;29.50;;;;;;4971671;28;19981;-63
2022/06/12 12:22:56;;;;;;;;;;;32.30;29.30;;;;;;4971616;28;19968;-64
2022/06/12 12:25:24;;;;;;;;;;;32.50;29.60;;;;;;4971627;28;20008;-64
2022/06/12 12:27:52;;;;;;;;;;;32.00;28.70;;;;;;4971381;28;19910;-64
2022/06/12 12:30:20;;;;;;;;;;;31.90;29.30;;;;;;4971453;28;20273;-64
2022/06/12 12:32:47;;;;;;;;;;;31.10;32.20;;;;;;4971526;28;19910;-64
2022/06/12 12:41:11;;;;;;;;;;;29.70;32.30;;;;;;4970297;28;20282;-64
2022/06/12 12:43:27;;;;;;;;;;;30.50;35.70;;;;;;4952222;29;19977;-63
2022/06/12 12:46:03;;;;;;;;;;;31.10;33.90;;;;;;4952081;29;20306;-63
2022/06/12 12:48:49;;;;;;;;;;;31.70;32.80;;;;;;4951741;28;19930;-63
2022/06/12 12:51:24;;;;;;;;;;;32.30;33.20;;;;;;4951586;29;20328;-63
2022/06/12 12:53:52;;;;;;;;;;;31.60;32.80;;;;;;4951960;29;20045;-63
2022/06/12 12:56:27;;;;;;;;;;;30.20;31.50;;;;;;4951442;29;20375;-63
2022/06/12 12:58:53;;;;;;;;;;;30.90;32.10;;;;;;4951472;29;19974;-64
2022/06/12 13:01:27;;;;;;;;;;;31.40;32.70;;;;;;4951494;29;19917;-64
2022/06/12 13:03:55;;;;;;;;;;;29.50;32.60;;;;;;4950894;28;20001;-64
2022/06/12 13:06:23;;;;;;;;;;;28.20;33.80;;;;;;4963684;28;20027;-64
2022/06/12 13:08:58;;;;;;;;;;;29.40;36.90;;;;;;4971114;28;19984;-64
2022/06/12 13:11:24;;;;;;;;;;;29.40;34.00;;;;;;4970876;28;19913;-65
2022/06/12 13:13:50;;;;;;;;;;;29.00;35.70;;;;;;4970862;28;20304;-63
2022/06/12 13:16:24;;;;;;;;;;;28.60;34.40;;;;;;4970682;28;19906;-64
2022/06/12 13:18:59;;;;;;;;;;;29.20;36.00;;;;;;4970531;28;19914;-63
2022/06/12 13:21:30;;;;;;;;;;;28.20;35.00;;;;;;4970552;28;19910;-63
2022/06/12 13:24:02;;;;;;;;;;;28.20;38.00;;;;;;4970357;28;20061;-64
2022/06/12 13:26:30;;;;;;;;;;;26.80;39.40;;;;;;4970403;28;19927;-63
2022/06/12 13:29:00;;;;;;;;;;;27.00;40.50;;;;;;4970566;28;20027;-63
2022/06/12 13:31:29;;;;;;;;;;;27.90;41.60;;;;;;4956146;28;19906;-63
2022/06/12 13:33:56;;;;;;;;;;;28.50;39.30;;;;;;4950728;28;19914;-65
2022/06/12 13:36:26;;;;;;;;;;;28.80;38.30;;;;;;4957651;28;20387;-64
2022/06/12 13:38:57;;;;;;;;;;;28.10;36.90;;;;;;4950738;28;20398;-64
2022/06/12 13:41:30;;;;;;;;;;;28.60;38.60;;;;;;4950560;28;20327;-64
2022/06/12 13:43:57;;;;;;;;;;;29.70;38.30;;;;;;4950331;29;19966;-65
2022/06/12 13:46:22;;;;;;;;;;;30.00;37.00;;;;;;4950646;29;19938;-65
2022/06/12 13:48:48;;;;;;;;;;;29.80;36.90;;;;;;4950310;29;19911;-67
2022/06/12 13:51:13;;;;;;;;;;;29.80;36.40;;;;;;4950113;29;19910;-65
2022/06/12 13:53:41;;;;;;;;;;;29.40;37.70;;;;;;4950448;29;19914;-66
2022/06/12 13:56:09;;;;;;;;;;;29.10;38.70;;;;;;4950413;29;19903;-65
2022/06/12 13:58:36;;;;;;;;;;;28.50;39.10;;;;;;4950278;29;19950;-64
2022/06/12 14:01:06;;;;;;;;;;;28.40;40.50;;;;;;4950673;29;19906;-66
2022/06/12 14:03:37;;;;;;;;;;;27.80;40.50;;;;;;4950682;29;19985;-63
2022/06/12 14:06:06;;;;;;;;;;;26.60;41.90;;;;;;4950422;29;19910;-64
2022/06/12 14:08:33;;;;;;;;;;;26.70;44.10;;;;;;4950286;29;20327;-63
2022/06/12 14:10:59;;;;;;;;;;;26.70;43.90;;;;;;4950592;29;20006;-64
2022/06/12 14:13:28;;;;;;;;;;;26.50;46.60;;;;;;4950133;28;19954;-64
2022/06/12 14:16:04;;;;;;;;;;;26.40;46.20;;;;;;4949859;29;20006;-64
2022/06/12 14:18:30;;;;;;;;;;;25.50;47.40;;;;;;4950365;29;20067;-63
2022/06/12 14:21:15;;;;;;;;;;;25.50;50.00;;;;;;4950019;29;19910;-63
2022/06/12 14:23:45;;;;;;;;;;;25.50;49.00;;;;;;4949915;29;19997;-64
2022/06/12 14:26:34;;;;;;;;;;;25.30;50.80;;;;;;4950049;29;19996;-64
2022/06/12 14:29:01;;;;;;;;;;;25.10;52.10;;;;;;4942496;29;20367;-64
2022/06/12 14:31:28;;;;;;;;;;;24.40;53.10;;;;;;4949762;29;20375;-64
2022/06/12 14:34:00;;;;;;;;;;;24.20;56.30;;;;;;4949142;29;19954;-63
2022/06/12 14:36:28;;;;;;;;;;;24.20;55.90;;;;;;4949668;29;19922;-64
2022/06/12 14:38:55;;;;;;;;;;;24.40;57.80;;;;;;4930252;29;19989;-65
2022/06/12 14:41:29;;;;;;;;;;;24.30;57.50;;;;;;4930467;29;19907;-64
2022/06/12 14:43:55;;;;;;;;;;;23.50;59.70;;;;;;4937438;29;19910;-64
2022/06/12 14:46:23;;;;;;;;;;;23.70;60.30;;;;;;4940645;29;19994;-64
2022/06/12 14:48:49;;;;;;;;;;;23.90;61.60;;;;;;4933243;29;19970;-64
2022/06/12 14:51:15;;;;;;;;;;;23.60;61.20;;;;;;4930357;29;19914;-62
2022/06/12 14:53:41;;;;;;;;;;;23.70;64.30;;;;;;4930102;29;19907;-61